Time;durP1;ratioP1;P1;durP2;ratioP2;P2;SDS_P1;SDS_P2;PMS_P1;PMS_P2;Temp;Humidity;BMP_temperature;BMP_pressure;BME280_temperature;BME280_humidity;BME280_pressure;Samples;Min_cycle;Max_cycle;Signal;HPM_P1;HPM_P2
2021/12/06 00:01:29;;;;;;;;;2.25;2.25;;;;;7.31;73.58;100454.78;5003754;28;45917;-89
2021/12/06 00:04:10;;;;;;;;;4.50;4.50;;;;;6.85;73.45;100391.16;5002653;28;45726;-90
2021/12/06 00:06:39;;;;;;;;;6.75;3.75;;;;;6.60;73.31;100350.59;5002286;28;45359;-85
2021/12/06 00:09:09;;;;;;;;;5.75;3.00;;;;;7.21;73.48;100443.25;5021779;28;46532;-90
2021/12/06 00:11:35;;;;;;;;;5.00;5.00;;;;;6.65;73.68;100350.69;5022376;28;45533;-86
2021/12/06 00:14:03;;;;;;;;;6.00;3.50;;;;;7.27;73.89;100481.78;5023266;28;44937;-87
2021/12/06 00:16:29;;;;;;;;;4.50;3.50;;;;;7.08;73.82;100449.16;5017985;28;44909;-89
2021/12/06 00:18:55;;;;;;;;;4.25;2.50;;;;;7.25;74.19;100478.25;5023412;28;45483;-87
2021/12/06 00:21:22;;;;;;;;;2.00;2.00;;;;;7.27;73.82;100471.31;5023841;28;45952;-88
2021/12/06 00:23:50;;;;;;;;;2.25;2.25;;;;;6.98;73.40;100448.13;5024896;28;45396;-86
2021/12/06 00:26:16;;;;;;;;;5.00;3.00;;;;;6.76;73.18;100401.47;5025341;28;45476;-88
2021/12/06 00:28:44;;;;;;;;;2.00;2.00;;;;;7.29;74.03;100475.72;5022466;28;46580;-87
2021/12/06 00:31:13;;;;;;;;;6.50;5.50;;;;;6.95;73.64;100419.25;5004111;28;45460;-89
2021/12/06 00:33:38;;;;;;;;;3.00;3.00;;;;;6.83;73.68;100399.00;5003819;28;45402;-89
2021/12/06 00:36:15;;;;;;;;;7.00;2.75;;;;;7.29;73.59;100473.09;5020546;28;45451;-86
2021/12/06 00:38:44;;;;;;;;;5.00;5.00;;;;;6.93;73.73;100422.72;5023364;28;46033;-87
2021/12/06 00:41:09;;;;;;;;;2.00;2.00;;;;;7.33;73.76;100497.59;5012644;28;45346;-90
2021/12/06 00:43:35;;;;;;;;;2.00;2.00;;;;;6.97;74.08;100435.00;5006302;28;45193;-88
2021/12/06 00:46:00;;;;;;;;;3.00;3.00;;;;;7.03;74.01;100445.56;5002024;28;45344;-86
2021/12/06 00:48:26;;;;;;;;;4.50;4.50;;;;;6.85;73.92;100423.44;5033506;28;46581;-90
2021/12/06 00:50:52;;;;;;;;;4.50;4.50;;;;;6.80;73.54;100419.91;5034132;28;44706;-86
2021/12/06 00:53:18;;;;;;;;;5.50;5.50;;;;;7.09;74.08;100466.66;5006386;28;45289;-88
2021/12/06 00:55:43;;;;;;;;;6.00;4.00;;;;;7.32;73.70;100512.44;5002974;28;45636;-88
2021/12/06 00:58:09;;;;;;;;;3.25;2.50;;;;;7.30;73.54;100506.28;5021301;28;45584;-90
2021/12/06 01:00:40;;;;;;;;;3.00;3.00;;;;;7.33;73.88;100513.31;5002906;28;45700;-89
2021/12/06 01:03:10;;;;;;;;;5.50;5.50;;;;;7.00;73.78;100466.47;5023314;28;45192;-90
2021/12/06 01:05:37;;;;;;;;;3.75;3.00;;;;;7.30;74.62;100519.41;4987901;28;45482;-90
2021/12/06 01:08:03;;;;;;;;;3.75;3.00;;;;;6.82;74.01;100446.97;5008018;28;47143;-89
2021/12/06 01:10:30;;;;;;;;;6.50;5.50;;;;;6.79;73.96;100444.31;5022562;28;45274;-90
2021/12/06 01:12:57;;;;;;;;;3.75;3.75;;;;;7.09;74.04;100503.31;5004496;28;44618;-88
2021/12/06 01:15:23;;;;;;;;;4.75;2.50;;;;;6.77;74.37;100442.50;5004828;28;45611;-89
2021/12/06 01:17:49;;;;;;;;;2.75;2.00;;;;;6.65;73.70;100434.44;5003488;28;48186;-89
2021/12/06 01:20:20;;;;;;;;;5.00;5.00;;;;;6.86;74.51;100459.25;5037442;28;45419;-90
2021/12/06 01:23:22;;;;;;;;;5.50;5.00;;;;;7.26;74.77;100541.19;5022848;28;45291;-89
2021/12/06 01:41:16;;;;;;;;;2.50;2.50;;;;;7.01;75.15;100524.13;5029147;28;45424;-91
2021/12/06 01:44:10;;;;;;;;;6.50;3.00;;;;;6.56;76.07;100454.34;5008145;28;45356;-91
2021/12/06 01:46:40;;;;;;;;;6.50;5.75;;;;;6.93;75.83;100524.84;5022482;28;45474;-89
2021/12/06 01:49:07;;;;;;;;;3.75;3.75;;;;;7.25;76.27;100577.78;5021826;28;45339;-88
2021/12/06 01:51:34;;;;;;;;;4.25;2.75;;;;;6.99;76.34;100540.69;5025761;28;45379;-91
2021/12/06 01:54:00;;;;;;;;;7.50;6.00;;;;;7.19;76.15;100578.59;5006596;28;45299;-87
2021/12/06 01:56:26;;;;;;;;;3.00;3.00;;;;;6.80;76.62;100498.44;5004643;28;45581;-89
2021/12/06 01:58:53;;;;;;;;;7.00;5.25;;;;;6.75;76.60;100486.97;5005979;28;48373;-88
2021/12/06 02:01:19;;;;;;;;;4.00;4.00;;;;;7.29;76.32;100588.38;5011953;28;45273;-88
2021/12/06 02:03:44;;;;;;;;;3.00;3.00;;;;;7.29;76.65;100595.34;5037579;28;45132;-89
2021/12/06 02:06:10;;;;;;;;;6.00;3.00;;;;;6.80;76.97;100524.63;5028936;28;45220;-90
2021/12/06 02:08:37;;;;;;;;;8.25;3.00;;;;;6.76;76.59;100511.41;5019704;28;46344;-89
2021/12/06 02:11:04;;;;;;;;;5.50;3.75;;;;;6.76;76.42;100511.41;5003204;28;45822;-90
2021/12/06 02:13:36;;;;;;;;;7.00;5.75;;;;;7.03;76.49;100566.06;5020187;28;45339;-91
2021/12/06 02:16:04;;;;;;;;;5.75;5.75;;;;;7.01;76.44;100566.03;5024174;28;45661;-90
2021/12/06 02:21:11;;;;;;;;;4.00;3.50;;;;;6.79;77.20;100535.94;5031367;28;45387;-88
2021/12/06 02:23:38;;;;;;;;;6.75;5.75;;;;;6.97;76.55;100556.31;5027764;28;45277;-90
2021/12/06 02:26:06;;;;;;;;;6.25;5.00;;;;;6.91;76.41;100557.97;5002537;28;45529;-89
2021/12/06 02:28:31;;;;;;;;;8.00;6.25;;;;;7.29;77.23;100611.97;5000830;28;46685;-89
2021/12/06 02:30:57;;;;;;;;;5.00;5.00;;;;;7.01;76.26;100566.03;5002425;28;46038;-88
2021/12/06 02:33:24;;;;;;;;;5.50;5.25;;;;;7.27;76.51;100608.44;5004334;28;45437;-89
2021/12/06 02:35:52;;;;;;;;;7.00;7.00;;;;;6.59;76.56;100495.38;5002085;28;45243;-89
2021/12/06 02:38:17;;;;;;;;;7.25;5.50;;;;;6.78;76.38;100525.41;5013233;28;45628;-88
2021/12/06 02:40:43;;;;;;;;;7.00;5.75;;;;;7.20;76.98;100600.44;5007047;28;45194;-89
2021/12/06 02:43:13;;;;;;;;;3.75;3.75;;;;;7.33;76.98;100619.00;5002996;28;45550;-89
2021/12/06 02:45:40;;;;;;;;;5.25;5.25;;;;;7.06;76.29;100581.81;5003281;28;45170;-89
2021/12/06 02:48:09;;;;;;;;;7.00;4.75;;;;;7.21;77.00;100615.28;5003817;28;47616;-89
2021/12/06 02:50:38;;;;;;;;;5.75;5.00;;;;;7.30;77.43;100616.34;5005502;28;45916;-88
2021/12/06 02:53:05;;;;;;;;;6.00;3.00;;;;;7.33;76.87;100621.63;5005330;28;45299;-89
2021/12/06 02:55:36;;;;;;;;;7.75;6.00;;;;;6.72;76.54;100518.34;4996040;28;45274;-88
2021/12/06 02:58:16;;;;;;;;;7.00;5.25;;;;;7.36;76.46;100633.94;4998085;28;45435;-89
2021/12/06 03:00:50;;;;;;;;;5.00;5.00;;;;;7.33;76.73;100616.38;5006526;28;45193;-90
2021/12/06 03:03:18;;;;;;;;;3.75;3.00;;;;;6.54;76.49;100484.84;5003794;28;45514;-91
2021/12/06 03:05:45;;;;;;;;;3.25;3.25;;;;;6.55;76.67;100494.44;5005817;28;45489;-91
2021/12/06 03:08:11;;;;;;;;;6.00;4.25;;;;;6.97;77.42;100568.53;5005307;28;46923;-90
2021/12/06 03:10:38;;;;;;;;;6.50;6.00;;;;;6.91;77.01;100568.44;5004117;28;45450;-89
2021/12/06 03:13:05;;;;;;;;;4.25;4.25;;;;;7.27;77.10;100626.78;5004250;28;45349;-91
2021/12/06 03:15:31;;;;;;;;;6.25;6.25;;;;;7.34;76.53;100652.22;5003618;28;45339;-89
2021/12/06 03:17:57;;;;;;;;;6.00;3.00;;;;;6.85;76.61;100569.19;5022443;28;45212;-90
2021/12/06 03:20:22;;;;;;;;;7.00;6.00;;;;;6.79;76.43;100551.66;5007123;28;45611;-88
2021/12/06 03:22:48;;;;;;;;;5.25;5.00;;;;;7.06;76.97;100611.50;5005120;28;45205;-88
2021/12/06 03:25:17;;;;;;;;;5.50;3.50;;;;;7.38;77.21;100659.28;5004411;28;45371;-87
2021/12/06 03:27:42;;;;;;;;;5.75;5.50;;;;;6.67;76.87;100533.06;5004773;28;46970;-88
2021/12/06 03:30:11;;;;;;;;;4.25;4.25;;;;;6.98;76.64;100599.09;5005039;28;45475;-89
2021/12/06 03:32:37;;;;;;;;;5.75;5.75;;;;;7.14;76.34;100614.28;5008575;28;45224;-89
2021/12/06 03:35:03;;;;;;;;;7.50;6.00;;;;;6.82;76.90;100588.34;5020613;28;45200;-91
2021/12/06 03:37:28;;;;;;;;;6.00;6.00;;;;;7.01;76.65;100605.31;5011894;28;45567;-91
2021/12/06 03:39:54;;;;;;;;;6.25;6.25;;;;;7.04;77.40;100621.06;5007396;28;45308;-89
2021/12/06 03:42:22;;;;;;;;;6.50;6.50;;;;;6.53;77.19;100532.81;5005698;28;45426;-91
2021/12/06 03:44:48;;;;;;;;;7.00;6.00;;;;;7.32;77.19;100656.56;5007239;28;45310;-91
2021/12/06 03:47:20;;;;;;;;;6.50;6.50;;;;;6.90;77.16;100579.78;5006485;28;45414;-89
2021/12/06 03:49:45;;;;;;;;;6.75;5.00;;;;;6.94;76.74;100586.81;5034246;28;45429;-87
2021/12/06 03:52:13;;;;;;;;;6.00;6.00;;;;;7.34;77.01;100657.47;5012545;28;45282;-89
2021/12/06 03:54:39;;;;;;;;;6.75;6.75;;;;;6.64;77.34;100551.34;5008163;28;45463;-89
2021/12/06 03:57:05;;;;;;;;;6.25;4.50;;;;;7.27;77.20;100680.91;5010220;28;47723;-91
2021/12/06 03:59:31;;;;;;;;;7.00;5.50;;;;;6.64;77.84;100561.81;5010481;28;45588;-91
2021/12/06 04:01:57;;;;;;;;;7.25;7.25;;;;;6.67;78.19;100560.97;5013766;28;45444;-89
2021/12/06 04:04:23;;;;;;;;;8.00;7.50;;;;;6.86;77.65;100587.53;5014603;28;45261;-91
2021/12/06 04:06:49;;;;;;;;;6.00;5.25;;;;;7.38;77.67;100697.72;5015080;28;45605;-88
2021/12/06 04:09:15;;;;;;;;;8.00;6.00;;;;;7.14;77.50;100643.97;5012461;28;44797;-89
2021/12/06 04:11:41;;;;;;;;;9.75;8.00;;;;;7.43;78.11;100694.31;5001483;28;45415;-89
2021/12/06 04:14:08;;;;;;;;;9.00;7.75;;;;;7.42;77.46;100703.03;4990109;28;45486;-91
2021/12/06 04:16:34;;;;;;;;;7.75;7.00;;;;;7.14;77.15;100670.16;5013461;28;45753;-91
2021/12/06 04:19:00;;;;;;;;;7.75;6.50;;;;;7.37;77.51;100717.81;5007998;28;46901;-93
2021/12/06 04:21:28;;;;;;;;;6.50;6.50;;;;;7.08;77.94;100669.19;5007565;28;45280;-91
2021/12/06 04:23:54;;;;;;;;;6.00;6.00;;;;;7.39;77.23;100731.81;5014303;28;45731;-90
2021/12/06 04:26:20;;;;;;;;;11.00;10.50;;;;;7.33;77.54;100709.84;5021675;28;47234;-86
2021/12/06 04:28:49;;;;;;;;;6.75;5.50;;;;;6.76;77.43;100610.91;5016883;28;44825;-89
2021/12/06 04:31:17;;;;;;;;;8.00;6.00;;;;;6.51;77.43;100571.16;5010814;28;45271;-91
2021/12/06 04:33:44;;;;;;;;;5.50;5.50;;;;;7.33;77.92;100717.69;5007209;28;45130;-90
2021/12/06 04:36:11;;;;;;;;;7.50;6.25;;;;;7.19;77.47;100688.63;5009808;28;47632;-89
2021/12/06 04:38:36;;;;;;;;;10.75;10.25;;;;;7.44;77.58;100726.66;5011473;28;45349;-92
2021/12/06 04:41:04;;;;;;;;;12.00;12.00;;;;;7.07;77.44;100659.53;5007305;28;45414;-87
2021/12/06 04:43:30;;;;;;;;;7.00;7.00;;;;;7.04;76.55;100647.28;5006328;28;44933;-90
2021/12/06 04:45:55;;;;;;;;;8.25;7.00;;;;;7.48;77.26;100736.38;4994410;28;47257;-90
2021/12/06 04:48:21;;;;;;;;;6.75;6.50;;;;;7.39;77.42;100717.84;4996510;28;45590;-91
2021/12/06 04:50:46;;;;;;;;;6.50;6.50;;;;;7.37;77.55;100728.28;5004177;28;45308;-90
2021/12/06 04:53:20;;;;;;;;;12.75;10.00;;;;;7.56;77.17;100760.13;5007044;28;45481;-92
2021/12/06 04:56:06;;;;;;;;;6.25;6.25;;;;;7.57;77.36;100764.50;5004121;28;48979;-87
2021/12/06 04:58:41;;;;;;;;;10.25;10.25;;;;;7.25;78.47;100704.44;5003790;28;45260;-90
2021/12/06 05:01:12;;;;;;;;;7.00;7.00;;;;;6.79;77.79;100621.41;5010379;28;45201;-90
2021/12/06 05:03:40;;;;;;;;;11.75;9.25;;;;;7.56;77.96;100765.34;5013158;28;45242;-91
2021/12/06 05:06:12;;;;;;;;;8.00;8.00;;;;;7.10;78.24;100696.28;5003096;28;47376;-90
2021/12/06 05:08:41;;;;;;;;;8.00;7.00;;;;;7.53;79.60;100766.16;5005916;28;45315;-90
2021/12/06 05:11:08;;;;;;;;;7.75;7.75;;;;;7.22;79.49;100720.09;5006342;28;45203;-89
2021/12/06 05:13:35;;;;;;;;;10.50;7.25;;;;;7.51;78.57;100775.72;5004621;28;45521;-90
2021/12/06 05:16:00;;;;;;;;;8.75;6.75;;;;;7.12;78.91;100724.28;5004998;28;46633;-89
2021/12/06 05:18:28;;;;;;;;;9.50;8.00;;;;;7.49;79.93;100787.03;5002955;28;45379;-88
2021/12/06 05:20:53;;;;;;;;;12.25;12.00;;;;;7.51;79.67;100794.06;5005759;28;45352;-90
2021/12/06 05:23:20;;;;;;;;;8.00;7.75;;;;;7.41;79.96;100771.16;5003003;28;45542;-90
2021/12/06 05:25:46;;;;;;;;;12.00;11.00;;;;;7.47;80.30;100789.63;5017110;28;46225;-88
2021/12/06 05:28:21;;;;;;;;;15.00;13.50;;;;;6.97;80.44;100695.13;5031349;28;45241;-90
2021/12/06 05:30:53;;;;;;;;;10.75;10.00;;;;;6.82;79.56;100685.22;5006882;28;45550;-92
2021/12/06 05:33:28;;;;;;;;;15.75;10.75;;;;;7.39;80.30;100781.63;5022908;28;45222;-86
2021/12/06 05:35:54;;;;;;;;;11.75;11.75;;;;;7.34;79.65;100777.13;5006277;28;45539;-88
2021/12/06 05:38:19;;;;;;;;;11.00;10.00;;;;;7.42;79.91;100800.00;5039001;28;45183;-88
2021/12/06 05:40:47;;;;;;;;;15.00;10.75;;;;;7.15;79.77;100753.16;5038089;28;45190;-87
2021/12/06 05:43:13;;;;;;;;;15.25;14.50;;;;;7.02;79.71;100727.56;5045174;28;45366;-90
2021/12/06 05:45:38;;;;;;;;;14.75;13.75;;;;;7.40;80.79;100788.63;5026839;28;47947;-91
2021/12/06 05:48:05;;;;;;;;;12.50;11.00;;;;;7.41;79.69;100799.97;5013200;28;45301;-91
2021/12/06 05:50:31;;;;;;;;;9.50;9.50;;;;;7.03;79.44;100741.53;5024118;28;44738;-94
2021/12/06 05:52:58;;;;;;;;;14.00;8.50;;;;;7.16;79.42;100754.03;5025583;28;45289;-92
2021/12/06 05:55:27;;;;;;;;;15.75;13.75;;;;;7.45;79.30;100816.69;5024676;28;45392;-91
2021/12/06 05:57:55;;;;;;;;;6.50;6.50;;;;;7.28;78.93;100775.28;5025184;28;45395;-91
2021/12/06 06:00:21;;;;;;;;;15.00;8.75;;;;;7.14;79.41;100755.72;5027288;28;45337;-89
2021/12/06 06:02:48;;;;;;;;;13.00;12.25;;;;;7.03;79.04;100728.44;5011926;28;45557;-90
2021/12/06 06:05:14;;;;;;;;;15.25;15.25;;;;;7.14;79.25;100760.97;5028664;28;45320;-90
2021/12/06 06:07:40;;;;;;;;;13.25;11.75;;;;;7.45;78.86;100821.91;5010922;28;45312;-90
2021/12/06 06:10:06;;;;;;;;;8.75;8.00;;;;;6.96;79.19;100737.88;5027328;28;45161;-89
2021/12/06 06:12:32;;;;;;;;;13.00;8.75;;;;;7.42;79.36;100809.63;5032183;28;45271;-88
2021/12/06 06:14:58;;;;;;;;;13.50;8.50;;;;;7.45;78.80;100817.56;5020543;28;45587;-90
2021/12/06 06:17:24;;;;;;;;;9.50;8.00;;;;;7.46;79.01;100821.06;5034060;28;44659;-86
2021/12/06 06:19:53;;;;;;;;;7.25;7.25;;;;;7.05;79.17;100759.03;5015269;28;44828;-88
2021/12/06 06:22:19;;;;;;;;;10.25;10.25;;;;;6.94;79.64;100738.72;5013692;28;45335;-91
2021/12/06 06:24:47;;;;;;;;;9.25;9.25;;;;;7.29;79.18;100799.72;5015681;28;47334;-88
2021/12/06 06:27:12;;;;;;;;;11.00;9.00;;;;;7.36;79.77;100830.47;5027582;28;45407;-87
2021/12/06 06:29:38;;;;;;;;;10.00;10.00;;;;;7.42;79.93;100841.94;5039277;28;45276;-88
2021/12/06 06:32:06;;;;;;;;;10.50;10.25;;;;;7.43;78.87;100845.44;5025467;28;45542;-84
2021/12/06 06:34:33;;;;;;;;;12.00;9.50;;;;;7.32;79.13;100839.09;5026378;28;45473;-84
2021/12/06 06:36:59;;;;;;;;;10.75;9.25;;;;;7.14;78.69;100809.00;5022282;28;45348;-83
2021/12/06 06:39:36;;;;;;;;;12.50;9.25;;;;;7.03;78.93;100797.41;5023710;28;45315;-84
2021/12/06 06:42:01;;;;;;;;;12.00;10.25;;;;;6.77;79.22;100751.41;5009063;28;45513;-86
2021/12/06 06:44:27;;;;;;;;;9.75;9.75;;;;;7.09;79.35;100809.78;5010418;28;47113;-87
2021/12/06 06:46:52;;;;;;;;;7.50;7.50;;;;;6.82;78.37;100762.91;5011002;28;45322;-87
2021/12/06 06:49:25;;;;;;;;;15.50;11.75;;;;;6.91;78.94;100794.53;5012075;28;45509;-89
2021/12/06 06:51:50;;;;;;;;;10.50;7.50;;;;;7.10;79.75;100827.25;5025981;28;45401;-85
2021/12/06 06:54:16;;;;;;;;;9.50;8.50;;;;;7.03;79.35;100822.72;5021262;28;45659;-82
2021/12/06 06:56:41;;;;;;;;;13.75;13.75;;;;;6.83;78.77;100803.94;5024695;28;45344;-81
2021/12/06 06:59:07;;;;;;;;;15.50;12.00;;;;;6.97;79.82;100826.06;5027235;28;46612;-84
2021/12/06 07:01:33;;;;;;;;;10.50;10.00;;;;;7.08;79.52;100858.66;5005212;28;45300;-80
2021/12/06 07:03:59;;;;;;;;;16.25;13.00;;;;;6.90;79.37;100858.22;5018762;28;45418;-80
2021/12/06 07:06:27;;;;;;;;;15.50;11.75;;;;;6.85;79.37;100842.38;5030793;28;45477;-82
2021/12/06 07:08:54;;;;;;;;;14.00;11.25;;;;;6.92;79.18;100853.91;5032319;28;45308;-80
2021/12/06 07:11:21;;;;;;;;;10.75;10.75;;;;;6.89;79.35;100848.59;5033816;28;45497;-83
2021/12/06 07:13:47;;;;;;;;;12.00;10.00;;;;;6.96;79.61;100866.22;5021536;28;46259;-82
2021/12/06 07:16:15;;;;;;;;;12.75;11.25;;;;;6.99;79.59;100879.41;5021209;28;45493;-81
2021/12/06 07:18:40;;;;;;;;;13.75;12.00;;;;;7.01;79.38;100887.28;5026809;28;45383;-84
2021/12/06 07:21:06;;;;;;;;;13.25;11.25;;;;;7.03;79.07;100890.81;5033487;28;45613;-84
2021/12/06 07:23:34;;;;;;;;;15.00;15.00;;;;;7.01;80.21;100884.66;5027285;28;45464;-83
2021/12/06 07:26:00;;;;;;;;;14.75;12.25;;;;;7.02;79.37;100894.28;5020470;28;45262;-78
2021/12/06 07:28:25;;;;;;;;;15.50;15.50;;;;;6.92;79.84;100877.47;5022429;28;45470;-80
2021/12/06 07:30:51;;;;;;;;;14.25;11.50;;;;;6.92;79.91;100890.56;5019691;28;45265;-80
2021/12/06 07:33:16;;;;;;;;;16.50;13.25;;;;;6.74;80.16;100866.53;5030900;28;45430;-82
2021/12/06 07:35:44;;;;;;;;;15.00;13.00;;;;;6.76;80.36;100891.03;5018387;28;45527;-80
2021/12/06 07:38:09;;;;;;;;;15.25;12.25;;;;;6.77;79.84;100903.25;5019305;28;45284;-83
2021/12/06 07:40:36;;;;;;;;;21.50;14.50;;;;;6.71;80.61;100906.63;5019193;28;45330;-84
2021/12/06 07:43:02;;;;;;;;;18.50;14.00;;;;;6.65;81.08;100893.38;5019414;28;45351;-84
2021/12/06 07:45:28;;;;;;;;;11.75;11.50;;;;;6.61;80.18;100888.00;5021914;28;45372;-87
2021/12/06 07:47:54;;;;;;;;;17.50;14.00;;;;;6.54;81.13;100887.88;5003243;28;45583;-86
2021/12/06 07:50:21;;;;;;;;;18.00;12.75;;;;;6.58;81.66;100896.69;5021788;28;45221;-85
2021/12/06 07:52:51;;;;;;;;;19.75;17.00;;;;;6.48;80.75;100881.59;5025993;28;46273;-84
2021/12/06 07:55:19;;;;;;;;;15.75;15.75;;;;;6.44;80.77;100884.97;5023349;28;45316;-82
2021/12/06 07:57:45;;;;;;;;;19.00;15.50;;;;;6.42;81.51;100884.03;5020604;28;45237;-84
2021/12/06 08:00:14;;;;;;;;;15.75;15.75;;;;;6.54;81.60;100916.66;5019337;28;45292;-84
2021/12/06 08:02:40;;;;;;;;;20.00;16.25;;;;;6.59;80.92;100906.28;5021454;28;45526;-81
2021/12/06 08:05:32;;;;;;;;;23.00;19.25;;;;;6.55;80.18;100886.13;5023227;28;45566;-83
2021/12/06 08:08:08;;;;;;;;;12.50;12.50;;;;;6.67;81.17;100917.84;5019146;28;45505;-83
2021/12/06 08:10:36;;;;;;;;;14.00;14.00;;;;;6.74;79.75;100900.59;5018216;28;45341;-79
2021/12/06 08:13:03;;;;;;;;;16.25;15.75;;;;;6.63;79.71;100874.13;5016115;28;47168;-76
2021/12/06 08:15:29;;;;;;;;;18.00;16.00;;;;;6.74;79.85;100874.41;5023545;28;45582;-75
2021/12/06 08:17:54;;;;;;;;;18.50;14.75;;;;;6.85;79.16;100879.03;5021950;28;45499;-80
2021/12/06 08:20:20;;;;;;;;;19.00;15.25;;;;;6.97;78.53;100899.41;5019778;28;45435;-80
2021/12/06 08:22:46;;;;;;;;;15.75;15.75;;;;;6.98;78.79;100892.44;5020675;28;45332;-78
2021/12/06 08:25:12;;;;;;;;;24.00;20.25;;;;;6.92;78.15;100882.72;5019525;28;45423;-79
2021/12/06 08:27:38;;;;;;;;;18.50;18.00;;;;;7.02;78.18;100889.06;5018420;28;45568;-75
2021/12/06 08:30:06;;;;;;;;;20.50;19.00;;;;;7.01;77.37;100888.16;5017738;28;45419;-86
2021/12/06 08:32:32;;;;;;;;;18.00;18.00;;;;;7.02;77.44;100882.09;4997491;28;45948;-78
2021/12/06 08:34:58;;;;;;;;;28.50;24.00;;;;;6.99;76.35;100871.53;5017258;28;45419;-78
2021/12/06 08:37:25;;;;;;;;;21.50;19.25;;;;;7.05;77.53;100866.44;5016503;28;45382;-76
2021/12/06 08:39:51;;;;;;;;;22.50;19.75;;;;;6.92;78.64;100847.78;5008760;28;45229;-80
2021/12/06 08:42:17;;;;;;;;;18.00;17.75;;;;;7.20;79.25;100899.09;5023088;28;45587;-77
2021/12/06 08:44:42;;;;;;;;;22.50;19.00;;;;;7.29;78.60;100894.06;5018598;28;45477;-77
2021/12/06 08:47:08;;;;;;;;;20.75;19.75;;;;;7.36;78.20;100877.63;5024839;28;45294;-80
2021/12/06 08:49:34;;;;;;;;;21.25;20.75;;;;;7.41;76.72;100863.78;5022893;28;45457;-78
2021/12/06 08:52:00;;;;;;;;;22.50;21.75;;;;;7.55;77.29;100881.56;5022533;28;45582;-75
2021/12/06 08:54:27;;;;;;;;;29.25;25.00;;;;;7.43;76.94;100853.31;5015537;28;45522;-77
2021/12/06 08:56:58;;;;;;;;;25.00;23.50;;;;;7.61;75.95;100851.09;5021434;28;45462;-76
2021/12/06 08:59:24;;;;;;;;;20.75;19.75;;;;;7.69;76.90;100856.50;5017415;28;45311;-73
2021/12/06 09:01:50;;;;;;;;;26.00;25.75;;;;;7.78;75.35;100867.19;5014529;28;45475;-76
2021/12/06 09:04:16;;;;;;;;;19.00;16.50;;;;;7.85;75.97;100855.97;5015174;28;45356;-77
2021/12/06 09:06:45;;;;;;;;;29.75;24.25;;;;;7.97;75.60;100860.56;5016118;28;45416;-75
2021/12/06 09:09:12;;;;;;;;;21.00;20.25;;;;;8.16;75.55;100867.06;5012531;28;45523;-76
2021/12/06 09:11:40;;;;;;;;;16.25;12.75;;;;;8.28;74.50;100868.19;5016425;28;45587;-79
2021/12/06 09:14:07;;;;;;;;;18.75;17.50;;;;;8.34;74.28;100869.16;5016241;28;45494;-80
2021/12/06 09:16:36;;;;;;;;;27.25;24.00;;;;;8.31;73.99;100861.22;5016765;28;45504;-77
2021/12/06 09:19:03;;;;;;;;;23.00;18.50;;;;;8.40;73.66;100880.69;5019775;28;45513;-78
2021/12/06 09:21:29;;;;;;;;;30.00;27.75;;;;;8.67;73.48;100887.28;5026684;28;46399;-78
2021/12/06 09:23:58;;;;;;;;;26.25;23.75;;;;;8.72;73.07;100865.47;5020974;28;45433;-77
2021/12/06 09:26:23;;;;;;;;;50.00;40.50;;;;;9.75;71.46;100865.25;5019239;28;45332;-80
2021/12/06 09:28:56;;;;;;;;;16.75;16.00;;;;;11.31;65.58;100882.63;5032885;28;45285;-84
2021/12/06 09:31:22;;;;;;;;;21.75;21.75;;;;;10.83;65.67;100850.63;4995327;28;47378;-85
2021/12/06 09:33:47;;;;;;;;;27.25;19.00;;;;;10.40;66.93;100869.53;5016675;28;45449;-85
2021/12/06 09:36:14;;;;;;;;;25.00;21.00;;;;;9.96;65.88;100869.94;5039895;28;45399;-88
2021/12/06 09:38:41;;;;;;;;;24.75;19.50;;;;;8.93;65.95;100751.09;5030154;28;45352;-88
2021/12/06 09:41:11;;;;;;;;;20.00;20.00;;;;;9.52;66.45;100874.59;5044729;28;45313;-85
2021/12/06 09:43:41;;;;;;;;;24.00;23.00;;;;;8.98;66.35;100799.34;5029331;28;45609;-84
2021/12/06 09:46:09;;;;;;;;;18.75;17.75;;;;;9.09;66.59;100834.53;5008929;28;45372;-84
2021/12/06 09:48:35;;;;;;;;;20.00;16.00;;;;;9.28;67.54;100873.38;5024264;28;45252;-82
2021/12/06 09:51:05;;;;;;;;;21.25;18.25;;;;;9.07;67.95;100831.91;5019030;28;45374;-84
2021/12/06 09:53:34;;;;;;;;;24.25;22.25;;;;;9.36;68.06;100865.59;5018148;28;45512;-84
2021/12/06 09:56:12;;;;;;;;;17.00;15.00;;;;;9.56;67.02;100876.41;5009845;28;45461;-86
2021/12/06 09:59:23;;;;;;;;;;;;;;;;;;;;;
2021/12/06 10:01:58;;;;;;;;;13.25;13.25;;;;;9.62;63.35;100766.91;4974264;28;74897;-83
2021/12/06 10:04:27;;;;;;;;;17.50;17.50;;;;;9.87;64.60;100865.44;4967475;28;45240;-81
2021/12/06 10:06:54;;;;;;;;;17.25;14.50;;;;;9.46;65.56;100848.22;4966964;28;45464;-78
2021/12/06 10:09:30;;;;;;;;;16.25;12.50;;;;;9.33;64.69;100873.47;4963991;28;45412;-86
2021/12/06 10:11:57;;;;;;;;;15.00;15.00;;;;;9.50;65.35;100876.34;4945025;28;48091;-82
2021/12/06 10:14:23;;;;;;;;;18.25;15.50;;;;;11.20;62.28;100850.03;4956964;28;45516;-86
2021/12/06 10:19:17;;;;;;;;;18.00;14.00;;;;;10.34;60.10;100737.84;5074353;22;62404;-86
2021/12/06 10:21:44;;;;;;;;;9.25;9.25;;;;;10.64;61.04;100848.72;5029799;28;47187;-87
2021/12/06 10:24:13;;;;;;;;;17.50;12.75;;;;;10.36;61.87;100802.81;5044336;28;45295;-86
2021/12/06 10:30:00;;;;;;;;;13.00;12.50;;;;;10.41;60.23;100794.94;5010340;28;45531;-85
2021/12/06 10:32:30;;;;;;;;;12.75;11.50;;;;;9.97;61.02;100746.25;5014216;28;45479;-90
2021/12/06 10:35:00;;;;;;;;;10.50;10.50;;;;;10.31;61.67;100830.84;4998909;28;45305;-84
2021/12/06 10:37:33;;;;;;;;;14.00;11.75;;;;;10.24;62.04;100822.00;5000009;28;45440;-82
2021/12/06 10:39:59;;;;;;;;;16.25;10.00;;;;;10.13;62.47;100805.16;4997639;28;45407;-87
2021/12/06 10:42:37;;;;;;;;;12.75;9.00;;;;;10.14;62.78;100798.16;4992052;28;46578;-83
2021/12/06 10:45:12;;;;;;;;;15.00;11.25;;;;;10.03;63.27;100795.41;4979034;28;45356;-82
2021/12/06 10:47:41;;;;;;;;;14.00;12.25;;;;;10.09;64.01;100807.78;4985317;28;45396;-82
2021/12/06 10:50:12;;;;;;;;;10.75;8.50;;;;;10.02;62.22;100800.66;4993821;28;45554;-79
2021/12/06 10:52:49;;;;;;;;;15.00;12.75;;;;;9.88;62.45;100776.84;4977362;28;46140;-77
2021/12/06 10:55:14;;;;;;;;;10.75;10.75;;;;;9.89;62.59;100792.66;4999773;28;45384;-79
2021/12/06 10:57:49;;;;;;;;;14.25;14.25;;;;;9.94;62.41;100782.16;4998181;28;45545;-85
2021/12/06 11:00:36;;;;;;;;;16.25;14.75;;;;;9.83;62.43;100775.91;5003471;28;45603;-81
2021/12/06 11:03:02;;;;;;;;;14.75;14.25;;;;;9.72;63.93;100786.31;5025847;28;46308;-84
2021/12/06 11:05:32;;;;;;;;;14.75;13.50;;;;;9.59;63.70;100751.09;5042513;28;45450;-84
2021/12/06 11:08:10;;;;;;;;;14.00;14.00;;;;;9.71;63.56;100758.25;5060517;28;45218;-79
2021/12/06 11:10:48;;;;;;;;;18.00;12.50;;;;;9.92;63.62;100776.88;5034390;28;45566;-81
2021/12/06 11:13:23;;;;;;;;;13.50;13.50;;;;;9.89;63.04;100755.81;5040072;28;45344;-82
2021/12/06 11:15:58;;;;;;;;;16.00;15.00;;;;;10.19;62.77;100762.25;5039913;28;45454;-80
2021/12/06 11:18:31;;;;;;;;;20.00;13.75;;;;;10.25;62.46;100757.97;5039797;28;45417;-82
2021/12/06 11:20:57;;;;;;;;;14.00;14.00;;;;;10.23;62.27;100762.31;5038096;28;45549;-83
2021/12/06 11:23:22;;;;;;;;;14.50;11.00;;;;;10.15;62.44;100718.34;5039148;28;46331;-83
2021/12/06 11:25:57;;;;;;;;;13.25;12.50;;;;;10.36;62.24;100762.44;5038861;28;45484;-82
2021/12/06 11:28:33;;;;;;;;;12.00;12.00;;;;;10.22;61.97;100778.97;5039709;28;45337;-84
2021/12/06 11:31:05;;;;;;;;;11.00;9.00;;;;;10.17;62.44;100777.16;5042197;28;45324;-83
2021/12/06 11:33:34;;;;;;;;;17.25;13.00;;;;;10.14;62.79;100774.47;5039300;28;45431;-82
2021/12/06 11:36:02;;;;;;;;;14.25;12.75;;;;;10.14;62.46;100759.56;5039040;28;45459;-84
2021/12/06 11:38:29;;;;;;;;;14.75;12.00;;;;;10.06;62.21;100757.75;5039253;28;45478;-80
2021/12/06 11:41:01;;;;;;;;;9.75;9.00;;;;;9.86;63.24;100747.88;5039215;28;45180;-79
2021/12/06 11:43:37;;;;;;;;;14.25;12.50;;;;;9.48;63.99;100715.88;5039491;28;46351;-80
2021/12/06 11:46:03;;;;;;;;;13.25;11.00;;;;;9.34;64.24;100715.75;5020750;28;45274;-80
2021/12/06 11:48:32;;;;;;;;;14.00;12.00;;;;;9.14;64.86;100701.47;5034449;28;45364;-81
2021/12/06 11:51:05;;;;;;;;;9.50;9.50;;;;;9.20;65.24;100725.19;5019535;28;45257;-78
2021/12/06 11:53:35;;;;;;;;;13.50;11.50;;;;;9.13;65.66;100724.25;5018994;28;45449;-80
2021/12/06 11:56:12;;;;;;;;;13.00;13.00;;;;;9.11;66.18;100725.06;5018131;28;45291;-81